Time;durP1;ratioP1;P1;durP2;ratioP2;P2;SDS_P1;SDS_P2;PMS_P1;PMS_P2;Temp;Humidity;BMP_temperature;BMP_pressure;BME280_temperature;BME280_humidity;BME280_pressure;Samples;Min_cycle;Max_cycle;Signal;HPM_P1;HPM_P2
2022/07/03 00:01:48;;;;;;;2.70;2.00;;;25.20;51.10;27.00;100907.00;;;;5064851;28;20169;-45
2022/07/03 00:04:14;;;;;;;2.25;2.00;;;25.30;51.30;27.00;100903.00;;;;5065879;28;20193;-45
2022/07/03 00:06:40;;;;;;;2.60;2.15;;;25.30;51.40;27.00;100898.00;;;;5065896;28;20192;-45
2022/07/03 00:09:05;;;;;;;2.20;2.00;;;25.30;51.40;27.00;100893.00;;;;5064592;28;20177;-45
2022/07/03 00:11:32;;;;;;;2.88;2.15;;;25.30;51.50;26.90;100888.00;;;;5065621;28;20185;-45
2022/07/03 00:13:58;;;;;;;2.40;2.00;;;25.30;51.50;26.90;100902.00;;;;5065954;28;20165;-43
2022/07/03 00:16:24;;;;;;;2.30;2.10;;;25.20;51.20;26.90;100901.00;;;;5065551;28;20190;-43
2022/07/03 00:18:50;;;;;;;2.67;2.05;;;25.20;51.50;26.90;100906.00;;;;5065406;28;20248;-44
2022/07/03 00:21:41;;;;;;;3.05;2.28;;;25.10;51.80;26.90;100903.00;;;;5065626;28;20744;-44
2022/07/03 00:24:16;;;;;;;2.25;2.03;;;25.10;51.90;26.90;100907.00;;;;5065600;28;20201;-44
2022/07/03 00:26:42;;;;;;;2.75;2.03;;;25.10;52.10;26.80;100902.00;;;;5064403;28;20189;-44
2022/07/03 00:29:09;;;;;;;2.58;2.10;;;25.10;52.00;26.80;100910.00;;;;5047543;28;20244;-47
2022/07/03 00:31:34;;;;;;;2.63;2.00;;;25.10;52.00;26.80;100911.00;;;;5064376;28;20223;-44
2022/07/03 00:34:01;;;;;;;3.53;2.17;;;25.10;52.10;26.80;100908.00;;;;5065766;28;20174;-44
2022/07/03 00:36:36;;;;;;;2.28;2.08;;;25.20;52.10;26.80;100909.00;;;;5065280;28;20292;-44
2022/07/03 00:39:02;;;;;;;2.30;2.10;;;25.20;52.80;26.70;100915.00;;;;5067285;28;20165;-44
2022/07/03 00:41:33;;;;;;;3.40;2.15;;;25.20;52.20;26.70;100907.00;;;;5069530;28;20166;-44
2022/07/03 00:43:59;;;;;;;2.17;1.90;;;25.20;52.20;26.70;100913.00;;;;5069767;28;20158;-45
2022/07/03 00:46:25;;;;;;;2.78;2.28;;;25.20;52.20;26.70;100917.00;;;;5080023;28;20477;-44
2022/07/03 00:48:52;;;;;;;1.98;1.77;;;25.20;52.20;26.70;100915.00;;;;5081409;28;20173;-43
2022/07/03 00:51:24;;;;;;;2.38;2.00;;;25.20;52.20;26.70;100907.00;;;;5078721;28;20157;-45
2022/07/03 00:53:52;;;;;;;2.55;2.35;;;25.10;52.10;26.70;100907.00;;;;5069510;28;20267;-43
2022/07/03 00:56:23;;;;;;;2.58;2.13;;;25.10;52.80;26.60;100905.00;;;;5069020;28;20743;-45
2022/07/03 00:58:53;;;;;;;4.22;2.28;;;25.10;52.10;26.60;100905.00;;;;5068941;28;20664;-44
2022/07/03 01:01:19;;;;;;;2.80;2.20;;;25.00;51.40;26.60;100895.00;;;;5069511;28;20166;-45
2022/07/03 01:03:46;;;;;;;2.75;2.30;;;25.00;51.70;26.50;100898.00;;;;5067834;28;20961;-44
2022/07/03 01:06:14;;;;;;;2.35;2.00;;;25.00;52.10;26.50;100900.00;;;;5067955;28;20200;-43
2022/07/03 01:08:50;;;;;;;3.53;2.30;;;25.00;52.20;26.50;100889.00;;;;5068842;28;20178;-44
2022/07/03 01:11:28;;;;;;;2.55;2.10;;;24.90;52.30;26.50;100897.00;;;;5068827;28;20181;-44
2022/07/03 01:14:35;;;;;;;2.05;1.90;;;24.90;52.10;26.50;100890.00;;;;5067855;28;20180;-44
2022/07/03 01:17:07;;;;;;;3.55;2.33;;;24.70;52.50;26.50;100887.00;;;;5067509;28;20181;-44
2022/07/03 01:19:44;;;;;;;3.53;2.40;;;24.80;53.30;26.40;100887.00;;;;5067428;28;20215;-43
2022/07/03 01:22:36;;;;;;;3.75;2.20;;;24.90;52.40;26.40;100890.00;;;;5068710;28;20170;-44
2022/07/03 01:25:26;;;;;;;3.55;2.40;;;24.90;52.30;26.40;100884.00;;;;5068947;28;20243;-45
2022/07/03 01:27:59;;;;;;;3.35;2.30;;;24.90;52.40;26.30;100884.00;;;;5068510;28;20673;-44
2022/07/03 01:30:29;;;;;;;2.10;1.90;;;24.90;52.50;26.30;100878.00;;;;5067309;28;20181;-44
2022/07/03 01:33:02;;;;;;;2.53;2.33;;;24.90;52.50;26.30;100880.00;;;;5067642;28;20234;-43
2022/07/03 01:35:35;;;;;;;3.08;2.17;;;25.00;52.60;26.30;100884.00;;;;5068394;28;20202;-44
2022/07/03 01:38:09;;;;;;;2.35;2.00;;;24.90;52.60;26.30;100884.00;;;;5067084;28;20304;-44
2022/07/03 01:40:37;;;;;;;2.40;2.20;;;25.00;52.40;26.20;100873.00;;;;5068661;28;20169;-43
2022/07/03 01:43:05;;;;;;;3.25;2.33;;;24.90;52.40;26.20;100878.00;;;;5068678;28;20173;-43
2022/07/03 01:45:33;;;;;;;2.05;1.90;;;25.00;52.40;26.20;100877.00;;;;5072412;28;20228;-44
2022/07/03 01:47:59;;;;;;;2.67;2.22;;;24.90;52.30;26.20;100873.00;;;;5095377;28;20166;-45
2022/07/03 01:50:25;;;;;;;3.00;2.20;;;24.90;52.30;26.20;100863.00;;;;5092676;28;20158;-45
2022/07/03 01:52:50;;;;;;;2.33;2.13;;;24.90;52.10;26.20;100859.00;;;;5071096;28;20177;-45
2022/07/03 01:55:16;;;;;;;3.60;2.10;;;24.90;52.20;26.20;100866.00;;;;5068157;28;20189;-45
2022/07/03 01:57:44;;;;;;;2.90;2.20;;;24.80;51.70;26.10;100855.00;;;;5067116;28;20196;-44
2022/07/03 02:00:12;;;;;;;3.83;2.20;;;24.70;51.90;26.10;100854.00;;;;5068497;28;20205;-45
2022/07/03 02:02:44;;;;;;;3.67;2.00;;;24.60;52.00;26.10;100855.00;;;;5068052;28;20765;-44
2022/07/03 02:05:21;;;;;;;2.97;2.03;;;24.70;52.40;26.10;100856.00;;;;5067129;28;20233;-44
2022/07/03 02:07:59;;;;;;;2.90;2.00;;;24.70;52.50;26.00;100859.00;;;;5067892;28;20160;-43
2022/07/03 02:10:33;;;;;;;2.20;2.00;;;24.70;52.40;26.00;100858.00;;;;5069159;28;20184;-44
2022/07/03 02:13:07;;;;;;;2.30;2.03;;;24.70;52.30;26.00;100846.00;;;;5067937;28;20680;-44
2022/07/03 02:15:34;;;;;;;2.25;2.05;;;24.70;52.40;26.00;100848.00;;;;5067520;28;20193;-44
2022/07/03 02:18:27;;;;;;;3.33;2.05;;;24.70;52.50;26.00;100856.00;;;;5067472;28;20169;-44
2022/07/03 02:21:04;;;;;;;2.20;2.00;;;24.60;53.40;26.00;100856.00;;;;5067862;28;20166;-44
2022/07/03 02:23:32;;;;;;;2.30;2.10;;;24.60;52.80;26.00;100867.00;;;;5067788;28;20193;-45
2022/07/03 02:26:01;;;;;;;2.50;2.20;;;24.50;53.10;26.00;100867.00;;;;5067518;28;20884;-44
2022/07/03 02:28:45;;;;;;;2.55;2.25;;;24.50;53.00;25.90;100867.00;;;;5066437;28;20170;-44
2022/07/03 02:31:11;;;;;;;2.80;2.20;;;24.50;53.00;25.90;100856.00;;;;5067649;28;20211;-43
2022/07/03 02:33:36;;;;;;;2.72;2.20;;;24.60;53.10;25.90;100851.00;;;;5049750;28;20170;-44
2022/07/03 02:36:02;;;;;;;2.60;2.10;;;24.70;52.90;25.90;100866.00;;;;5066214;28;20189;-44
2022/07/03 02:38:28;;;;;;;4.43;2.30;;;24.70;52.70;25.90;100861.00;;;;5067178;28;20168;-44
2022/07/03 02:41:10;;;;;;;2.45;2.20;;;24.70;52.80;25.90;100871.00;;;;5049489;28;20670;-45
2022/07/03 02:43:43;;;;;;;2.20;2.00;;;24.70;52.80;25.80;100872.00;;;;5066212;28;20207;-44
2022/07/03 02:46:49;;;;;;;2.50;2.22;;;24.70;52.80;25.80;100865.00;;;;5065938;28;20221;-44
2022/07/03 02:49:37;;;;;;;3.20;2.10;;;24.50;53.00;25.80;100870.00;;;;5071963;28;20162;-44
2022/07/03 02:52:44;;;;;;;2.25;2.05;;;24.50;53.10;25.80;100867.00;;;;5080212;28;20185;-44
2022/07/03 02:55:44;;;;;;;2.47;2.03;;;24.60;53.10;25.70;100875.00;;;;5070443;28;20193;-45
2022/07/03 02:58:37;;;;;;;2.28;2.08;;;24.60;52.90;25.70;100874.00;;;;5082411;28;20650;-44
2022/07/03 03:01:15;;;;;;;2.75;2.00;;;24.70;53.10;25.70;100874.00;;;;5066411;28;20166;-44
2022/07/03 03:03:48;;;;;;;2.20;2.00;;;24.60;53.00;25.70;100872.00;;;;5065895;28;20177;-44
2022/07/03 03:06:15;;;;;;;2.50;2.15;;;24.60;52.90;25.60;100869.00;;;;5066217;28;20237;-44
2022/07/03 03:08:48;;;;;;;2.67;2.25;;;24.60;52.90;25.60;100867.00;;;;5066583;28;20170;-45
2022/07/03 03:11:31;;;;;;;3.53;2.22;;;24.50;52.80;25.60;100865.00;;;;5066735;28;20152;-45
2022/07/03 03:13:57;;;;;;;3.20;2.13;;;24.50;52.80;25.60;100863.00;;;;5066678;28;20176;-44
2022/07/03 03:16:23;;;;;;;3.85;2.10;;;24.60;52.80;25.60;100755.00;;;;5066585;28;20228;-45
2022/07/03 03:18:49;;;;;;;2.45;2.00;;;24.50;52.80;25.60;100867.00;;;;5066485;28;20177;-43
2022/07/03 03:21:19;;;;;;;2.38;2.10;;;24.50;52.80;25.60;100872.00;;;;5066408;28;20173;-44
2022/07/03 03:23:50;;;;;;;2.40;2.20;;;24.50;52.90;25.50;100876.00;;;;5065850;28;20670;-44
2022/07/03 03:26:28;;;;;;;2.28;2.13;;;24.50;53.00;25.50;100881.00;;;;5065811;28;20197;-44
2022/07/03 03:28:54;;;;;;;2.17;1.98;;;24.40;53.00;25.50;100877.00;;;;5065898;28;20721;-44
2022/07/03 03:31:20;;;;;;;3.90;2.30;;;24.50;53.10;25.50;100879.00;;;;5065900;28;20353;-43
2022/07/03 03:33:48;;;;;;;3.72;2.15;;;24.40;53.10;25.50;100879.00;;;;5064572;28;20170;-45
2022/07/03 03:36:17;;;;;;;6.65;2.40;;;24.40;53.20;25.50;100884.00;;;;5065617;28;20282;-45
2022/07/03 03:38:42;;;;;;;3.80;2.30;;;24.40;53.20;25.40;100880.00;;;;5065118;28;20829;-46
2022/07/03 03:41:08;;;;;;;3.03;2.10;;;24.40;53.90;25.40;100889.00;;;;5065451;28;20186;-44
2022/07/03 03:43:35;;;;;;;2.55;2.35;;;24.30;53.20;25.40;100881.00;;;;5065802;28;20249;-43
2022/07/03 03:46:01;;;;;;;2.50;2.10;;;24.30;53.20;25.40;100881.00;;;;5065354;28;20297;-44
2022/07/03 03:48:26;;;;;;;9.30;8.50;;;24.30;53.40;25.40;100887.00;;;;5064984;28;20843;-44
2022/07/03 03:50:52;;;;;;;4.93;4.53;;;24.30;53.50;25.40;100894.00;;;;5064459;28;20177;-45
2022/07/03 03:53:19;;;;;;;3.08;2.80;;;24.20;53.70;25.30;100895.00;;;;5073796;28;20181;-44
2022/07/03 03:56:00;;;;;;;2.78;2.50;;;24.20;53.60;25.30;100894.00;;;;5063695;28;20192;-44
2022/07/03 03:58:25;;;;;;;3.05;2.20;;;24.20;53.40;25.30;100895.00;;;;5064505;28;20650;-45
2022/07/03 04:00:53;;;;;;;4.38;2.45;;;24.20;53.40;25.30;100897.00;;;;5064682;28;20173;-44
2022/07/03 04:03:19;;;;;;;2.47;2.27;;;24.20;53.40;25.20;100901.00;;;;5064909;28;20169;-43
2022/07/03 04:05:44;;;;;;;3.25;2.22;;;24.20;53.50;25.20;100901.00;;;;5064427;28;20202;-45
2022/07/03 04:08:10;;;;;;;2.70;2.30;;;24.20;53.60;25.20;100898.00;;;;5064355;28;20170;-45
2022/07/03 04:10:36;;;;;;;4.60;2.30;;;24.20;53.60;25.20;100902.00;;;;5064735;28;20169;-44
2022/07/03 04:13:02;;;;;;;2.33;2.13;;;24.10;53.50;25.10;100903.00;;;;5063265;28;20169;-45
2022/07/03 04:15:27;;;;;;;3.30;2.40;;;24.10;53.50;25.10;100904.00;;;;5064558;28;20197;-44
2022/07/03 04:17:53;;;;;;;2.67;2.25;;;24.10;53.60;25.10;100899.00;;;;5064310;28;20227;-43
2022/07/03 04:20:19;;;;;;;2.30;2.10;;;24.10;53.60;25.10;100899.00;;;;5064523;28;20200;-44
2022/07/03 04:22:45;;;;;;;3.10;2.40;;;24.10;53.60;25.10;100910.00;;;;5026236;28;1099362;-44
2022/07/03 04:25:11;;;;;;;2.30;2.10;;;24.10;53.60;25.10;100913.00;;;;5064808;28;20208;-44
2022/07/03 04:27:36;;;;;;;3.30;2.33;;;24.00;54.10;25.10;100916.00;;;;5065030;28;20166;-44
2022/07/03 04:30:02;;;;;;;2.40;2.10;;;24.10;53.70;25.00;100917.00;;;;5065271;28;20177;-44
2022/07/03 04:32:28;;;;;;;2.60;2.40;;;24.00;53.50;25.00;100914.00;;;;5065702;28;20195;-43
2022/07/03 04:34:54;;;;;;;2.43;2.10;;;24.00;53.50;25.00;100907.00;;;;5076002;28;20162;-45
2022/07/03 04:37:20;;;;;;;2.93;1.97;;;24.00;53.50;25.00;100916.00;;;;5083087;28;20174;-44
2022/07/03 04:39:45;;;;;;;2.20;2.00;;;24.00;53.50;25.00;100916.00;;;;5067628;28;20901;-44
2022/07/03 04:42:11;;;;;;;2.97;2.20;;;24.00;53.50;25.00;100922.00;;;;5065077;28;20166;-45
2022/07/03 04:44:37;;;;;;;2.33;2.13;;;24.00;53.50;25.00;100924.00;;;;5065440;28;20208;-45
2022/07/03 04:47:03;;;;;;;2.40;2.20;;;24.00;53.70;24.90;100928.00;;;;5065100;28;20582;-44
2022/07/03 04:49:28;;;;;;;3.00;2.20;;;24.00;53.60;24.90;100929.00;;;;5065235;28;20182;-44
2022/07/03 04:51:56;;;;;;;2.67;2.40;;;24.00;53.80;24.90;100929.00;;;;5064907;28;20197;-44
2022/07/03 04:54:22;;;;;;;3.30;2.20;;;24.00;53.70;24.90;100926.00;;;;5065076;28;20238;-44
2022/07/03 04:56:47;;;;;;;2.70;2.00;;;24.00;53.90;24.90;100923.00;;;;5065191;28;20284;-44
2022/07/03 04:59:13;;;;;;;2.30;2.10;;;23.90;53.90;24.90;100921.00;;;;5065048;28;20166;-45
2022/07/03 05:01:39;;;;;;;2.27;2.03;;;23.90;54.10;24.80;100924.00;;;;5065046;28;20588;-44
2022/07/03 05:04:05;;;;;;;2.67;2.30;;;23.90;54.10;24.80;100929.00;;;;5065039;28;20200;-44
2022/07/03 05:06:31;;;;;;;3.60;2.23;;;23.90;54.10;24.80;100947.00;;;;5067587;28;20288;-46
2022/07/03 05:08:56;;;;;;;2.30;2.10;;;23.80;54.70;24.80;100954.00;;;;5091240;28;20170;-44
2022/07/03 05:11:22;;;;;;;2.30;2.10;;;23.70;54.50;24.70;100942.00;;;;5091259;28;20170;-45
2022/07/03 05:13:48;;;;;;;2.40;2.07;;;23.70;54.10;24.70;100937.00;;;;5068842;28;20170;-44
2022/07/03 05:16:14;;;;;;;2.40;2.20;;;23.70;54.10;24.70;100938.00;;;;5065167;28;20613;-43
2022/07/03 05:18:39;;;;;;;2.47;1.90;;;23.70;54.60;24.70;100949.00;;;;5067071;28;20174;-44
2022/07/03 05:21:05;;;;;;;2.30;2.10;;;23.60;54.80;24.70;100946.00;;;;5065528;28;20257;-44
2022/07/03 05:23:31;;;;;;;2.80;2.20;;;23.60;54.50;24.60;100943.00;;;;5065273;28;20220;-44
2022/07/03 05:25:58;;;;;;;3.20;2.20;;;23.60;54.20;24.60;100948.00;;;;5068451;28;20201;-45
2022/07/03 05:28:24;;;;;;;2.67;2.40;;;23.60;54.30;24.60;100949.00;;;;5079152;28;20177;-47
2022/07/03 05:30:50;;;;;;;2.07;1.93;;;23.70;54.70;24.60;100948.00;;;;5086917;28;20181;-44
2022/07/03 05:33:15;;;;;;;2.33;2.03;;;23.70;54.20;24.60;100958.00;;;;5086158;28;20193;-45
2022/07/03 05:35:41;;;;;;;2.20;2.00;;;23.60;53.90;24.60;100959.00;;;;5069796;28;20803;-44
2022/07/03 05:38:07;;;;;;;3.50;2.00;;;23.70;53.90;24.60;100965.00;;;;5068130;28;20666;-45
2022/07/03 05:40:32;;;;;;;2.73;2.10;;;23.60;53.70;24.60;100966.00;;;;5068370;28;20186;-43
2022/07/03 05:42:58;;;;;;;2.70;2.07;;;23.60;53.90;24.50;100954.00;;;;5068430;28;20174;-44
2022/07/03 05:45:24;;;;;;;2.30;2.10;;;23.60;53.70;24.50;100954.00;;;;5068001;28;20686;-44
2022/07/03 05:47:50;;;;;;;3.63;2.40;;;23.60;53.80;24.50;100963.00;;;;5067527;28;20186;-45
2022/07/03 05:50:15;;;;;;;2.50;2.23;;;23.60;54.40;24.50;100969.00;;;;5068026;28;20172;-44
2022/07/03 05:52:41;;;;;;;2.37;2.17;;;23.60;54.70;24.60;100967.00;;;;5068481;28;20170;-44
2022/07/03 05:55:07;;;;;;;2.57;2.00;;;23.60;54.20;24.50;100962.00;;;;5079205;28;20830;-45
2022/07/03 05:57:33;;;;;;;2.80;2.10;;;23.60;53.90;24.50;100965.00;;;;5082668;28;20178;-44
2022/07/03 05:59:59;;;;;;;3.13;2.60;;;23.50;54.00;24.50;100969.00;;;;5069289;28;20177;-45
2022/07/03 06:02:24;;;;;;;3.10;2.30;;;23.50;54.60;24.50;100965.00;;;;5066388;28;20178;-44
2022/07/03 06:04:50;;;;;;;5.97;3.23;;;23.50;54.40;24.50;100976.00;;;;5067319;28;20210;-43
2022/07/03 06:07:16;;;;;;;3.53;2.80;;;23.60;54.90;24.50;100973.00;;;;5067511;28;20690;-45
2022/07/03 06:09:43;;;;;;;4.73;2.60;;;23.60;54.80;24.50;100966.00;;;;5067917;28;20205;-44
2022/07/03 06:12:10;;;;;;;3.27;2.50;;;23.50;54.30;24.50;100975.00;;;;5067939;28;20185;-43
2022/07/03 06:14:36;;;;;;;3.63;2.40;;;23.60;54.40;24.50;100979.00;;;;5067252;28;20192;-43
2022/07/03 06:17:02;;;;;;;4.63;2.50;;;23.50;54.30;24.40;100969.00;;;;5067429;28;20197;-44
2022/07/03 06:19:28;;;;;;;2.70;2.40;;;23.50;54.90;24.40;100969.00;;;;5067530;28;20272;-43
2022/07/03 06:21:54;;;;;;;4.10;2.33;;;23.50;54.30;24.40;100967.00;;;;5067802;28;20249;-44
2022/07/03 06:24:20;;;;;;;3.27;2.50;;;23.50;54.80;24.40;100975.00;;;;5067051;28;20347;-43
2022/07/03 06:26:46;;;;;;;2.80;2.50;;;23.40;54.40;24.40;100965.00;;;;5067382;28;20213;-44
2022/07/03 06:29:11;;;;;;;2.63;2.43;;;23.40;54.30;24.40;100971.00;;;;5066738;28;20569;-48
2022/07/03 06:31:37;;;;;;;2.80;2.50;;;23.50;54.70;24.40;100970.00;;;;5067103;28;20661;-44
2022/07/03 06:34:03;;;;;;;2.60;2.40;;;23.40;54.80;24.40;100980.00;;;;5067323;28;20185;-43
2022/07/03 06:36:28;;;;;;;3.93;2.53;;;23.50;54.60;24.40;100980.00;;;;5065791;28;20194;-44
2022/07/03 06:38:54;;;;;;;4.03;2.27;;;23.50;54.30;24.40;100985.00;;;;5066550;28;20177;-42
2022/07/03 06:41:20;;;;;;;2.57;2.37;;;23.40;54.50;24.40;100985.00;;;;5067003;28;20154;-45
2022/07/03 06:43:46;;;;;;;5.03;2.90;;;23.50;54.30;24.40;100982.00;;;;5067066;28;20205;-44
2022/07/03 06:46:11;;;;;;;2.53;2.33;;;23.40;54.60;24.40;100980.00;;;;5066925;28;20751;-43
2022/07/03 06:48:37;;;;;;;3.83;2.93;;;23.40;54.40;24.30;100985.00;;;;5066273;28;20165;-44
2022/07/03 06:51:03;;;;;;;3.07;2.70;;;23.50;54.70;24.30;100986.00;;;;5066934;28;20173;-44
2022/07/03 06:53:28;;;;;;;3.93;2.80;;;23.40;54.70;24.30;100980.00;;;;5066553;28;20174;-45
2022/07/03 06:55:54;;;;;;;7.03;2.77;;;23.40;54.90;24.20;100985.00;;;;5066645;28;20201;-44
2022/07/03 06:58:20;;;;;;;3.23;2.90;;;23.40;55.00;24.20;100990.00;;;;5065693;28;20212;-44
2022/07/03 07:00:46;;;;;;;5.40;2.87;;;23.40;55.10;24.20;100987.00;;;;5066648;28;20173;-44
2022/07/03 07:03:11;;;;;;;4.90;2.80;;;23.30;55.10;24.20;100985.00;;;;5066468;28;20634;-45
2022/07/03 07:05:37;;;;;;;3.33;2.40;;;23.40;55.20;24.20;100990.00;;;;5066242;28;20288;-44
2022/07/03 07:08:03;;;;;;;3.53;2.60;;;23.30;54.90;24.20;100988.00;;;;5066138;28;20249;-44
2022/07/03 07:10:29;;;;;;;3.50;2.60;;;23.30;55.10;24.20;100989.00;;;;5066564;28;20256;-43
2022/07/03 07:12:55;;;;;;;5.10;2.67;;;23.30;54.90;24.20;100981.00;;;;5066471;28;20252;-45
2022/07/03 07:15:20;;;;;;;4.00;2.30;;;23.30;55.00;24.10;100982.00;;;;5066463;28;20216;-45
2022/07/03 07:17:46;;;;;;;4.93;2.60;;;23.30;54.80;24.10;100984.00;;;;5064438;28;20925;-43
2022/07/03 07:20:12;;;;;;;2.77;2.40;;;23.30;54.80;24.10;100987.00;;;;5066433;28;20265;-43
2022/07/03 07:22:37;;;;;;;4.60;2.90;;;23.30;54.40;24.10;100985.00;;;;5072287;28;20207;-44
2022/07/03 07:25:04;;;;;;;2.90;2.37;;;23.20;53.90;24.10;100985.00;;;;5083327;28;20253;-45
2022/07/03 07:27:29;;;;;;;4.10;2.60;;;23.20;54.00;24.10;100982.00;;;;5081670;28;20169;-43
2022/07/03 07:29:55;;;;;;;4.63;2.60;;;23.20;53.70;24.10;100981.00;;;;5066221;28;20567;-44
2022/07/03 07:32:21;;;;;;;5.73;2.57;;;23.20;54.30;24.10;100983.00;;;;5065777;28;20631;-43
2022/07/03 07:34:47;;;;;;;3.40;2.50;;;23.20;53.50;24.00;100981.00;;;;5064931;28;20234;-44
2022/07/03 07:37:12;;;;;;;3.87;2.60;;;23.10;53.50;24.00;100978.00;;;;5064853;28;20177;-47
2022/07/03 07:39:38;;;;;;;2.50;2.13;;;23.20;53.60;24.00;100978.00;;;;5066100;28;20205;-43
2022/07/03 07:42:04;;;;;;;5.33;2.80;;;23.10;53.50;24.00;100981.00;;;;5066168;28;20177;-44
2022/07/03 07:44:30;;;;;;;2.73;2.47;;;23.10;53.60;24.00;100976.00;;;;5066157;28;20223;-45
2022/07/03 07:46:56;;;;;;;3.57;2.40;;;23.10;53.90;24.00;100983.00;;;;5066162;28;20186;-44
2022/07/03 07:49:21;;;;;;;2.80;2.30;;;23.10;53.70;24.00;100980.00;;;;5070486;28;20238;-44
2022/07/03 07:51:47;;;;;;;2.93;2.43;;;23.10;53.80;24.00;100972.00;;;;5070807;28;20173;-44
2022/07/03 07:54:13;;;;;;;5.03;2.30;;;23.10;53.90;24.00;100984.00;;;;5065608;28;20173;-45
2022/07/03 07:56:39;;;;;;;4.27;2.30;;;23.00;53.90;24.00;100979.00;;;;5065741;28;20212;-45
2022/07/03 07:59:04;;;;;;;4.83;2.63;;;23.00;54.20;24.00;100976.00;;;;5065413;28;20208;-44
2022/07/03 08:07:12;;;;;;;2.97;2.70;;;23.00;54.10;23.90;100983.00;;;;5052878;28;20190;-45
2022/07/03 08:09:38;;;;;;;2.80;2.50;;;23.10;54.20;23.90;100981.00;;;;5064545;28;20212;-42
2022/07/03 08:12:04;;;;;;;4.20;2.50;;;23.00;54.10;23.90;100995.00;;;;5065523;28;20320;-43
2022/07/03 08:14:30;;;;;;;3.90;2.70;;;23.00;54.20;23.90;100984.00;;;;5065264;28;20794;-43
2022/07/03 08:16:56;;;;;;;3.40;2.50;;;23.00;54.20;23.90;100982.00;;;;5065415;28;20201;-47
2022/07/03 08:19:22;;;;;;;4.17;2.90;;;23.00;54.40;23.90;100979.00;;;;5064844;28;20169;-44
2022/07/03 08:21:47;;;;;;;2.90;2.60;;;23.00;54.40;23.90;100982.00;;;;5064504;28;20208;-44
2022/07/03 08:24:13;;;;;;;3.10;2.50;;;23.00;54.40;23.90;100975.00;;;;5065565;28;20189;-44
2022/07/03 08:26:39;;;;;;;3.17;2.70;;;23.10;54.50;23.90;100975.00;;;;5065810;28;20573;-44
2022/07/03 08:29:04;;;;;;;4.73;2.90;;;23.00;54.30;23.90;100982.00;;;;5065342;28;20544;-44
2022/07/03 08:31:30;;;;;;;2.70;2.37;;;23.00;54.40;23.90;100983.00;;;;5065569;28;20857;-44
2022/07/03 08:33:56;;;;;;;3.60;2.83;;;23.00;54.40;23.90;100984.00;;;;5077358;28;20150;-43
2022/07/03 08:36:22;;;;;;;3.67;2.90;;;22.90;54.30;23.90;100986.00;;;;5090084;28;20198;-45
2022/07/03 08:38:47;;;;;;;3.30;2.53;;;23.00;54.70;23.90;100993.00;;;;5085745;28;20165;-44
2022/07/03 08:41:13;;;;;;;3.97;3.20;;;23.00;54.80;23.90;100977.00;;;;5070624;28;20184;-44
2022/07/03 08:43:39;;;;;;;3.80;2.80;;;22.90;54.80;23.90;100985.00;;;;5053459;28;20172;-45
2022/07/03 08:46:05;;;;;;;3.37;2.50;;;23.00;55.00;23.90;100985.00;;;;5066017;28;20237;-44
2022/07/03 08:48:32;;;;;;;3.93;2.67;;;23.00;54.90;23.90;100987.00;;;;5047368;28;20260;-44
2022/07/03 08:50:58;;;;;;;3.17;2.80;;;23.10;55.00;23.90;100981.00;;;;5031094;28;20193;-44
2022/07/03 08:53:24;;;;;;;5.30;2.90;;;23.10;55.00;23.90;100988.00;;;;5064234;28;20753;-44
2022/07/03 08:55:50;;;;;;;3.13;2.70;;;23.10;55.20;24.00;100989.00;;;;5047608;28;20197;-45
2022/07/03 08:58:16;;;;;;;4.13;2.73;;;23.10;55.00;24.00;100978.00;;;;5065397;28;20174;-45
2022/07/03 09:00:42;;;;;;;3.73;2.70;;;23.20;55.20;24.00;100970.00;;;;5051219;28;20201;-46
2022/07/03 09:03:12;;;;;;;4.47;2.90;;;23.20;55.00;23.80;100988.00;;;;5067247;28;20201;-45
2022/07/03 09:05:38;;;;;;;4.10;2.87;;;23.10;54.80;24.00;100992.00;;;;5068583;28;20209;-44
2022/07/03 09:08:09;;;;;;;4.73;2.87;;;23.20;54.60;24.00;100990.00;;;;5078700;28;20165;-44
2022/07/03 09:10:35;;;;;;;4.60;3.20;;;23.20;54.40;24.00;100991.00;;;;5076057;28;20245;-44
2022/07/03 09:13:01;;;;;;;4.53;2.90;;;23.10;54.40;24.00;100988.00;;;;5073102;28;20186;-44
2022/07/03 09:15:26;;;;;;;3.67;2.90;;;23.20;54.50;24.10;100998.00;;;;5068860;28;20190;-44
2022/07/03 09:18:06;;;;;;;4.10;2.83;;;23.20;54.60;24.10;100995.00;;;;5068333;28;20689;-44
2022/07/03 09:20:33;;;;;;;3.37;2.53;;;23.20;54.60;24.10;100993.00;;;;5068317;28;20177;-44
2022/07/03 09:23:09;;;;;;;5.00;2.70;;;23.30;54.80;24.10;100987.00;;;;5067104;28;20182;-44
2022/07/03 09:25:35;;;;;;;3.73;2.60;;;23.30;54.80;24.10;100989.00;;;;5068750;28;20209;-44
2022/07/03 09:28:01;;;;;;;3.73;2.70;;;23.30;54.90;24.20;100987.00;;;;5068317;28;20654;-44
2022/07/03 09:30:26;;;;;;;3.93;2.47;;;23.30;54.90;24.20;100988.00;;;;5087756;28;20188;-44
2022/07/03 09:32:52;;;;;;;4.23;2.70;;;23.40;54.90;24.20;100985.00;;;;5087023;28;20200;-44
2022/07/03 09:35:27;;;;;;;3.37;3.03;;;23.30;54.60;24.20;100995.00;;;;5088170;28;20922;-43
2022/07/03 09:37:58;;;;;;;3.80;2.80;;;23.30;54.30;24.20;100987.00;;;;5087929;28;20204;-43
2022/07/03 09:40:25;;;;;;;5.23;2.60;;;23.30;54.30;24.20;100998.00;;;;5097102;28;20259;-44
2022/07/03 09:43:02;;;;;;;5.00;2.73;;;23.30;54.10;24.20;100999.00;;;;5099056;28;20177;-44
2022/07/03 09:45:47;;;;;;;3.20;2.90;;;23.40;54.00;24.20;100996.00;;;;5090584;28;20203;-45
2022/07/03 09:48:34;;;;;;;4.90;3.00;;;23.30;53.70;24.20;100992.00;;;;5086992;28;20186;-45
2022/07/03 09:51:19;;;;;;;4.33;2.80;;;23.30;54.00;24.20;100988.00;;;;5088315;28;20195;-44
2022/07/03 09:53:55;;;;;;;3.17;2.87;;;23.40;54.40;24.20;100991.00;;;;5088391;28;20214;-44
2022/07/03 09:56:36;;;;;;;5.70;2.63;;;23.40;54.10;23.90;100985.00;;;;5087883;28;20196;-44
2022/07/03 09:59:10;;;;;;;3.03;2.73;;;23.40;54.40;24.20;100989.00;;;;5087645;28;20184;-44
2022/07/03 10:01:41;;;;;;;2.90;2.60;;;23.50;55.10;24.30;100985.00;;;;5086579;28;20263;-44
2022/07/03 10:04:15;;;;;;;4.20;3.00;;;23.50;55.00;24.30;100978.00;;;;5083745;28;20645;-45
2022/07/03 10:06:58;;;;;;;2.60;2.40;;;23.50;54.40;24.30;100983.00;;;;5070546;28;20186;-43
2022/07/03 10:09:31;;;;;;;4.10;2.70;;;23.50;54.70;24.30;100975.00;;;;5067045;28;20627;-44
2022/07/03 10:11:58;;;;;;;3.23;2.60;;;23.50;54.90;24.30;100978.00;;;;5068270;28;20725;-43
2022/07/03 10:14:30;;;;;;;4.90;2.90;;;23.50;54.60;24.30;100970.00;;;;5066845;28;20154;-43
2022/07/03 10:16:57;;;;;;;4.00;2.80;;;23.50;55.10;24.40;100983.00;;;;5067477;28;20181;-44
2022/07/03 10:19:26;;;;;;;3.80;2.80;;;23.60;54.80;24.40;100988.00;;;;5066235;28;20587;-44
2022/07/03 10:22:02;;;;;;;5.90;2.97;;;23.60;54.70;24.40;100979.00;;;;5067343;28;20169;-44
2022/07/03 10:24:30;;;;;;;3.83;2.80;;;23.50;54.60;24.40;100984.00;;;;5069356;28;20209;-44
2022/07/03 10:26:56;;;;;;;3.93;2.90;;;23.60;54.50;24.40;100982.00;;;;5077183;28;20181;-44
2022/07/03 10:29:24;;;;;;;4.53;2.93;;;23.60;54.90;24.50;100980.00;;;;5077164;28;20265;-45
2022/07/03 10:31:50;;;;;;;4.37;2.80;;;23.70;54.70;24.50;100979.00;;;;5074856;28;20197;-45
2022/07/03 10:34:21;;;;;;;6.90;3.30;;;23.70;54.40;24.50;100981.00;;;;5066940;28;20619;-43
2022/07/03 10:36:50;;;;;;;4.70;2.90;;;23.70;54.50;24.40;100972.00;;;;5067371;28;20189;-45
2022/07/03 10:39:53;;;;;;;4.70;2.80;;;23.70;54.20;24.50;100978.00;;;;5049104;28;20152;-44
2022/07/03 10:45:16;;;;;;;2.70;2.40;;;23.80;55.00;24.60;100977.00;;;;5065644;28;20216;-44
2022/07/03 10:47:47;;;;;;;4.03;2.70;;;23.90;55.30;24.60;100983.00;;;;5066678;28;20553;-45
2022/07/03 10:50:19;;;;;;;2.90;2.40;;;23.90;54.50;24.60;100977.00;;;;5065992;28;20248;-44
2022/07/03 10:52:45;;;;;;;3.77;2.40;;;23.90;54.50;24.70;100968.00;;;;5066474;28;20162;-45
2022/07/03 10:55:12;;;;;;;3.03;2.20;;;24.00;54.40;24.70;100976.00;;;;5065595;28;20278;-45
2022/07/03 10:57:39;;;;;;;2.80;2.20;;;24.00;54.80;24.80;100969.00;;;;5066781;28;20169;-46
2022/07/03 11:00:15;;;;;;;3.93;2.03;;;24.10;55.50;24.80;100970.00;;;;5066608;28;20173;-46
2022/07/03 11:02:48;;;;;;;2.63;2.13;;;24.10;55.60;24.80;100955.00;;;;5066483;28;20526;-45
2022/07/03 11:05:20;;;;;;;3.37;2.30;;;24.10;55.80;24.90;100959.00;;;;5066269;28;20205;-45